createdAt,value
2022-11-16T00:01:34.437Z,97883.03
2022-11-16T00:04:04.449Z,97878.50
2022-11-16T00:06:31.838Z,97884.53
2022-11-16T00:09:21.010Z,97878.38
2022-11-16T00:11:58.610Z,97881.00
2022-11-16T00:14:29.522Z,97877.38
2022-11-16T00:16:57.023Z,97882.63
2022-11-16T00:19:25.485Z,97873.84
2022-11-16T00:21:54.220Z,97870.28
2022-11-16T00:24:23.713Z,97869.25
2022-11-16T00:26:53.970Z,97871.88
2022-11-16T00:29:24.659Z,97872.84
2022-11-16T00:31:53.726Z,97870.28
2022-11-16T00:34:22.387Z,97873.84
2022-11-16T00:36:49.995Z,97869.44
2022-11-16T00:39:18.724Z,97853.69
2022-11-16T00:41:46.322Z,97844.19
2022-11-16T00:44:13.506Z,97844.97
2022-11-16T00:46:41.465Z,97843.25
2022-11-16T00:49:09.684Z,97833.84
2022-11-16T00:51:37.622Z,97826.75
2022-11-16T00:54:06.645Z,97822.41
2022-11-16T00:56:34.450Z,97833.06
2022-11-16T00:59:01.360Z,97840.19
2022-11-16T01:01:28.713Z,97839.47
2022-11-16T01:03:55.862Z,97830.81
2022-11-16T01:06:23.529Z,97835.94
2022-11-16T01:08:51.283Z,97829.69
2022-11-16T01:11:38.136Z,97819.13
2022-11-16T01:14:08.503Z,97805.19
2022-11-16T01:16:36.375Z,97805.19
2022-11-16T01:19:05.180Z,97809.53
2022-11-16T01:21:33.288Z,97808.59
2022-11-16T01:24:00.467Z,97803.41
2022-11-16T01:26:27.831Z,97804.28
2022-11-16T01:28:54.613Z,97803.28
2022-11-16T01:31:21.730Z,97806.72
2022-11-16T01:33:48.613Z,97793.56
2022-11-16T01:36:15.854Z,97795.41
2022-11-16T01:38:45.776Z,97798.72
2022-11-16T01:41:24.191Z,97784.78
2022-11-16T01:44:34.044Z,97781.25
2022-11-16T01:47:10.077Z,97786.56
2022-11-16T01:49:42.890Z,97777.31
2022-11-16T01:52:16.766Z,97771.50
2022-11-16T01:54:48.233Z,97776.00
2022-11-16T01:57:39.526Z,97773.56
2022-11-16T02:00:10.956Z,97776.09
2022-11-16T02:02:37.952Z,97764.81
2022-11-16T02:05:06.925Z,97772.69
2022-11-16T02:08:23.630Z,97766.59
2022-11-16T02:10:53.078Z,97765.53
2022-11-16T02:13:53.958Z,97760.44
2022-11-16T02:17:12.243Z,97751.75
2022-11-16T02:19:52.422Z,97740.38
2022-11-16T02:22:54.004Z,97743.06
2022-11-16T02:25:58.113Z,97739.59
2022-11-16T02:28:48.736Z,97739.47
2022-11-16T02:31:28.038Z,97742.16
2022-11-16T02:33:57.451Z,97735.25
2022-11-16T02:36:26.194Z,97738.66
2022-11-16T02:39:16.319Z,97724.69
2022-11-16T02:41:49.857Z,97725.47
2022-11-16T02:44:26.791Z,97727.06
2022-11-16T02:47:00.238Z,97713.00
2022-11-16T02:49:31.294Z,97728.75
2022-11-16T02:51:59.320Z,97716.56
2022-11-16T02:54:26.209Z,97718.31
2022-11-16T02:57:29.109Z,97711.38
2022-11-16T02:59:59.063Z,97712.16
2022-11-16T03:02:42.745Z,97703.31
2022-11-16T03:05:32.036Z,97704.94
2022-11-16T03:08:28.502Z,97708.47
2022-11-16T03:11:25.516Z,97700.75
2022-11-16T03:13:59.018Z,97695.44
2022-11-16T03:16:35.084Z,97694.56
2022-11-16T03:19:32.736Z,97697.84
2022-11-16T03:22:11.365Z,97689.91
2022-11-16T03:24:38.971Z,97698.47
2022-11-16T03:27:13.040Z,97688.78
2022-11-16T03:30:05.751Z,97694.81
2022-11-16T03:33:08.363Z,97686.16
2022-11-16T03:35:41.206Z,97683.75
2022-11-16T03:38:11.990Z,97682.72
2022-11-16T03:40:42.215Z,97679.06
2022-11-16T03:43:10.778Z,97670.19
2022-11-16T03:45:38.486Z,97665.81
2022-11-16T03:48:07.608Z,97658.09
2022-11-16T03:50:34.753Z,97663.25
2022-11-16T03:53:01.566Z,97654.44
2022-11-16T03:55:28.650Z,97664.72
2022-11-16T03:57:55.552Z,97659.63
2022-11-16T04:00:22.615Z,97667.41
2022-11-16T04:02:50.141Z,97665.50
2022-11-16T04:05:36.270Z,97659.34
2022-11-16T04:08:21.606Z,97663.97
2022-11-16T04:11:07.105Z,97650.13
2022-11-16T04:13:54.259Z,97651.75
2022-11-16T04:16:39.887Z,97653.75
2022-11-16T04:19:25.319Z,97659.00
2022-11-16T04:22:19.723Z,97644.41
2022-11-16T04:24:56.635Z,97642.53
2022-11-16T04:27:49.299Z,97643.31
2022-11-16T04:30:16.844Z,97642.28
2022-11-16T04:33:02.539Z,97641.31
2022-11-16T04:35:47.838Z,97640.28
2022-11-16T04:38:15.255Z,97640.41
2022-11-16T04:40:42.239Z,97638.50
2022-11-16T04:43:09.325Z,97634.72
2022-11-16T04:45:55.256Z,97627.72
2022-11-16T04:48:22.392Z,97629.41
2022-11-16T04:50:49.244Z,97623.25
2022-11-16T04:53:16.846Z,97621.38
2022-11-16T04:55:43.669Z,97605.63
2022-11-16T04:58:10.763Z,97618.63
2022-11-16T05:00:37.601Z,97617.53
2022-11-16T05:03:05.500Z,97621.03
2022-11-16T05:05:32.386Z,97625.47
2022-11-16T05:08:00.320Z,97621.09
2022-11-16T05:10:27.242Z,97620.94
2022-11-16T05:12:54.470Z,97619.16
2022-11-16T05:15:21.486Z,97618.16
2022-11-16T05:17:48.613Z,97615.53
2022-11-16T05:20:33.997Z,97619.16
2022-11-16T05:23:01.035Z,97620.16
2022-11-16T05:25:31.269Z,97615.03
2022-11-16T05:28:01.114Z,97621.94
2022-11-16T05:30:29.701Z,97625.41
2022-11-16T05:32:56.776Z,97617.53
2022-11-16T05:35:23.589Z,97615.91
2022-11-16T05:37:50.621Z,97611.66
2022-11-16T05:40:17.507Z,97609.19
2022-11-16T05:42:44.610Z,97614.59
2022-11-16T05:45:11.554Z,97611.03
2022-11-16T05:47:38.705Z,97610.03
2022-11-16T05:50:06.242Z,97609.97
2022-11-16T05:52:33.306Z,97622.16
2022-11-16T05:55:00.174Z,97618.75
2022-11-16T05:57:27.335Z,97614.34
2022-11-16T05:59:54.160Z,97622.00
2022-11-16T06:02:21.357Z,97618.53
2022-11-16T06:04:48.141Z,97620.09
2022-11-16T06:07:15.316Z,97630.28
2022-11-16T06:09:43.987Z,97624.03
2022-11-16T06:12:11.899Z,97628.56
2022-11-16T06:14:38.688Z,97635.69
2022-11-16T06:17:06.115Z,97644.47
2022-11-16T06:19:32.987Z,97644.56
2022-11-16T06:22:00.154Z,97641.94
2022-11-16T06:24:27.090Z,97643.78
2022-11-16T06:26:54.173Z,97639.47
2022-11-16T06:29:20.997Z,97641.16
2022-11-16T06:31:48.122Z,97636.78
2022-11-16T06:34:14.974Z,97638.31
2022-11-16T06:36:42.351Z,97634.69
2022-11-16T06:39:11.426Z,97633.97
2022-11-16T06:41:41.332Z,97627.03
2022-11-16T06:44:08.713Z,97628.72
2022-11-16T06:46:35.842Z,97631.28
2022-11-16T06:49:02.637Z,97625.19
2022-11-16T06:51:29.772Z,97627.88
2022-11-16T06:53:56.583Z,97631.53
2022-11-16T06:56:23.976Z,97622.72
2022-11-16T06:58:53.485Z,97625.47
2022-11-16T07:01:20.919Z,97622.00
2022-11-16T07:03:47.832Z,97626.34
2022-11-16T07:06:15.480Z,97632.38
2022-11-16T07:08:42.378Z,97632.38
2022-11-16T07:11:11.200Z,97621.09
2022-11-16T07:13:39.494Z,97620.94
2022-11-16T07:16:11.951Z,97624.19
2022-11-16T07:18:41.495Z,97619.66
2022-11-16T07:21:14.696Z,97622.19
2022-11-16T07:23:42.450Z,97620.34
2022-11-16T07:26:10.862Z,97617.78
2022-11-16T07:28:39.987Z,97623.94
2022-11-16T07:31:14.138Z,97623.94
2022-11-16T07:33:41.426Z,97624.81
2022-11-16T07:36:12.951Z,97626.72
2022-11-16T07:38:40.218Z,97626.72
2022-11-16T07:41:11.677Z,97619.09
2022-11-16T07:43:39.971Z,97607.66
2022-11-16T07:46:45.411Z,97624.91
2022-11-16T07:49:00.053Z,97626.34
2022-11-16T07:51:27.170Z,97622.97
2022-11-16T07:53:58.496Z,97631.75
2022-11-16T07:56:25.791Z,97632.63
2022-11-16T07:58:52.661Z,97624.75
2022-11-16T08:01:19.887Z,97630.91
2022-11-16T08:03:47.013Z,97640.72
2022-11-16T08:06:15.205Z,97625.88
2022-11-16T08:08:42.493Z,97632.63
2022-11-16T08:11:12.180Z,97631.59
2022-11-16T08:13:41.599Z,97621.94
2022-11-16T08:16:22.256Z,97621.09
2022-11-16T08:18:49.919Z,97618.13
2022-11-16T08:21:19.320Z,97621.44
2022-11-16T08:23:47.123Z,97618.81
2022-11-16T08:26:18.431Z,97615.31
2022-11-16T08:28:48.358Z,97624.28
2022-11-16T08:31:20.938Z,97623.53
2022-11-16T08:33:48.094Z,97623.44
2022-11-16T08:36:21.766Z,97618.03
2022-11-16T08:38:51.093Z,97623.13
2022-11-16T08:41:19.635Z,97614.31
2022-11-16T08:43:47.422Z,97615.09
2022-11-16T08:46:15.539Z,97606.22
2022-11-16T08:48:42.600Z,97614.63
2022-11-16T08:51:19.195Z,97618.03
2022-11-16T08:53:48.582Z,97617.66
2022-11-16T08:56:18.513Z,97619.09
2022-11-16T08:58:53.764Z,97622.53
2022-11-16T09:01:26.686Z,97612.88
2022-11-16T09:03:54.611Z,97614.56
2022-11-16T09:06:24.079Z,97611.75
2022-11-16T09:08:51.730Z,97602.06
2022-11-16T09:11:23.421Z,97601.03
2022-11-16T09:13:53.124Z,97601.94
2022-11-16T09:16:21.570Z,97602.91
2022-11-16T09:18:51.436Z,97611.53
2022-11-16T09:21:25.804Z,97615.81
2022-11-16T09:23:54.577Z,97607.06
2022-11-16T09:26:23.219Z,97601.66
2022-11-16T09:28:59.456Z,97606.97
2022-11-16T09:31:34.801Z,97601.66
2022-11-16T09:34:02.879Z,97602.41
2022-11-16T09:36:30.653Z,97605.03
2022-11-16T09:39:30.248Z,97601.56
2022-11-16T09:42:01.647Z,97603.44
2022-11-16T09:44:49.886Z,97604.34
2022-11-16T09:47:21.930Z,97603.44
2022-11-16T09:50:03.955Z,97606.91
2022-11-16T09:52:37.138Z,97601.72
2022-11-16T09:55:54.846Z,97600.72
2022-11-16T09:58:40.853Z,97601.50
2022-11-16T10:01:25.396Z,97609.22
2022-11-16T10:04:04.609Z,97607.38
2022-11-16T10:07:00.938Z,97608.16
2022-11-16T10:09:30.056Z,97606.38
2022-11-16T10:12:33.992Z,97603.84
2022-11-16T10:15:37.491Z,97603.66
2022-11-16T10:18:27.798Z,97597.28
2022-11-16T10:21:07.402Z,97592.00
2022-11-16T10:23:54.410Z,97592.00
2022-11-16T10:26:47.085Z,97585.81
2022-11-16T10:29:26.058Z,97590.06
2022-11-16T10:32:29.530Z,97575.22
2022-11-16T10:35:39.699Z,97571.59
2022-11-16T10:38:33.169Z,97568.75
2022-11-16T10:41:18.105Z,97556.38
2022-11-16T10:43:47.891Z,97559.00
2022-11-16T10:46:39.729Z,97553.81
2022-11-16T10:50:26.215Z,97551.19
2022-11-16T10:52:53.047Z,97542.28
2022-11-16T10:55:22.540Z,97538.88
2022-11-16T10:58:06.584Z,97541.75
2022-11-16T11:00:35.641Z,97545.16
2022-11-16T11:03:02.953Z,97544.91
2022-11-16T11:05:31.449Z,97537.63
2022-11-16T11:08:09.330Z,97537.63
2022-11-16T11:10:42.219Z,97534.00
2022-11-16T11:13:11.957Z,97536.38
2022-11-16T11:15:41.634Z,97539.84
2022-11-16T11:18:23.628Z,97531.88
2022-11-16T11:21:06.703Z,97526.63
2022-11-16T11:23:51.635Z,97527.38
2022-11-16T11:26:36.948Z,97526.53
2022-11-16T11:29:30.675Z,97513.47
2022-11-16T11:32:19.317Z,97526.47
2022-11-16T11:34:54.414Z,97516.94
2022-11-16T11:37:36.054Z,97522.28
2022-11-16T11:40:24.782Z,97521.38
2022-11-16T11:42:57.761Z,97528.31
2022-11-16T11:45:52.282Z,97519.56
2022-11-16T11:48:41.327Z,97510.25
2022-11-16T11:51:22.671Z,97506.78
2022-11-16T11:53:59.555Z,97500.25
2022-11-16T11:56:30.699Z,97506.13
2022-11-16T11:58:58.216Z,97505.06
2022-11-16T12:01:48.300Z,97500.34
2022-11-16T12:05:00.928Z,97497.47
2022-11-16T12:07:35.780Z,97499.16
2022-11-16T12:10:19.935Z,97494.81
2022-11-16T12:13:04.127Z,97494.91
2022-11-16T12:16:03.318Z,97493.13
2022-11-16T12:19:00.891Z,97493.19
2022-11-16T12:22:04.915Z,97488.66
2022-11-16T12:24:56.797Z,97486.78
2022-11-16T12:27:54.403Z,97482.28
2022-11-16T12:30:24.990Z,97482.19
2022-11-16T12:33:51.328Z,97482.78
2022-11-16T12:36:33.984Z,97486.16
2022-11-16T12:39:39.441Z,97477.44
2022-11-16T12:42:40.426Z,97476.47
2022-11-16T12:45:46.007Z,97470.47
2022-11-16T12:48:44.480Z,97473.38
2022-11-16T12:51:17.598Z,97470.03
2022-11-16T12:54:10.115Z,97476.41
2022-11-16T12:56:52.287Z,97480.84
2022-11-16T13:00:00.079Z,97487.78
2022-11-16T13:02:55.362Z,97478.03
2022-11-16T13:05:43.393Z,97482.34
2022-11-16T13:08:33.745Z,97477.00
2022-11-16T13:11:16.130Z,97476.84
2022-11-16T13:13:51.497Z,97475.88
2022-11-16T13:16:22.792Z,97475.06
2022-11-16T13:18:52.266Z,97481.16
2022-11-16T13:21:48.897Z,97489.16
2022-11-16T13:24:35.462Z,97482.84
2022-11-16T13:27:48.160Z,97471.50
2022-11-16T13:30:32.833Z,97469.72
2022-11-16T13:33:33.552Z,97468.69
2022-11-16T13:36:32.498Z,97468.00
2022-11-16T13:38:59.282Z,97466.41
2022-11-16T13:41:40.138Z,97463.28
2022-11-16T13:44:29.774Z,97471.31
2022-11-16T13:47:05.856Z,97471.56
2022-11-16T13:49:51.573Z,97462.84
2022-11-16T13:52:40.237Z,97459.47
2022-11-16T13:55:24.692Z,97463.19
2022-11-16T13:57:57.274Z,97464.06
2022-11-16T14:00:40.324Z,97454.63
2022-11-16T14:03:16.639Z,97455.66
2022-11-16T14:05:49.239Z,97450.47
2022-11-16T14:08:39.330Z,97453.94
2022-11-16T14:11:38.960Z,97452.19
2022-11-16T14:14:12.877Z,97449.66
2022-11-16T14:16:46.108Z,97443.50
2022-11-16T14:19:44.601Z,97445.31
2022-11-16T14:22:58.070Z,97445.38
2022-11-16T14:26:06.011Z,97434.88
2022-11-16T14:29:10.158Z,97432.91
2022-11-16T14:31:58.952Z,97431.25
2022-11-16T14:34:41.614Z,97428.88
2022-11-16T14:37:39.797Z,97437.75
2022-11-16T14:40:19.829Z,97423.69
2022-11-16T14:45:56.614Z,97424.44
2022-11-16T14:48:28.184Z,97427.94
2022-11-16T14:51:45.211Z,97425.31
2022-11-16T14:54:34.345Z,97419.03
2022-11-16T14:57:18.880Z,97421.50
2022-11-16T14:59:46.370Z,97420.53
2022-11-16T15:02:24.702Z,97423.94
2022-11-16T15:04:53.871Z,97414.44
2022-11-16T15:07:24.754Z,97425.78
2022-11-16T15:09:56.661Z,97422.31
2022-11-16T15:12:44.023Z,97421.41
2022-11-16T15:15:11.061Z,97417.06
2022-11-16T15:17:51.508Z,97410.13
2022-11-16T15:20:28.645Z,97412.66
2022-11-16T15:22:59.029Z,97409.09
2022-11-16T15:25:38.030Z,97407.59
2022-11-16T15:28:15.367Z,97406.91
2022-11-16T15:30:49.978Z,97402.75
2022-11-16T15:33:29.800Z,97404.53
2022-11-16T15:35:58.012Z,97392.31
2022-11-16T15:38:37.669Z,97406.66
2022-11-16T15:41:05.937Z,97401.50
2022-11-16T15:43:44.810Z,97395.19
2022-11-16T15:46:18.483Z,97397.06
2022-11-16T15:48:46.520Z,97394.28
2022-11-16T15:51:23.459Z,97392.50
2022-11-16T15:53:55.489Z,97390.66
2022-11-16T15:56:25.477Z,97392.41
2022-11-16T15:58:54.972Z,97385.38
2022-11-16T16:01:24.622Z,97387.81
2022-11-16T16:03:59.119Z,97382.75
2022-11-16T16:07:01.869Z,97387.16
2022-11-16T16:09:39.330Z,97394.03
2022-11-16T16:12:22.931Z,97375.53
2022-11-16T16:14:52.653Z,97384.34
2022-11-16T16:17:30.696Z,97381.66
2022-11-16T16:20:06.498Z,97384.28
2022-11-16T16:22:38.138Z,97386.22
2022-11-16T16:25:07.164Z,97387.91
2022-11-16T16:27:40.694Z,97380.03
2022-11-16T16:30:14.161Z,97387.06
2022-11-16T16:32:41.492Z,97387.81
2022-11-16T16:35:19.526Z,97388.78
2022-11-16T16:37:50.649Z,97380.88
2022-11-16T16:40:18.519Z,97385.19
2022-11-16T16:42:49.025Z,97378.09
2022-11-16T16:45:24.828Z,97375.47
2022-11-16T16:47:51.926Z,97384.19
2022-11-16T16:50:18.739Z,97384.94
2022-11-16T16:52:46.243Z,97389.19
2022-11-16T16:55:13.130Z,97390.94
2022-11-16T16:57:40.333Z,97386.66
2022-11-16T17:00:09.505Z,97380.53
2022-11-16T17:02:37.917Z,97369.25
2022-11-16T17:05:05.544Z,97378.84
2022-11-16T17:07:32.879Z,97379.59
2022-11-16T17:09:59.859Z,97371.63
2022-11-16T17:12:27.882Z,97376.06
2022-11-16T17:14:54.801Z,97369.75
2022-11-16T17:17:26.323Z,97367.88
2022-11-16T17:19:53.289Z,97372.31
2022-11-16T17:22:20.858Z,97362.81
2022-11-16T17:24:49.392Z,97367.13
2022-11-16T17:27:16.482Z,97361.13
2022-11-16T17:29:43.428Z,97360.28
2022-11-16T17:32:10.600Z,97365.47
2022-11-16T17:34:39.989Z,97361.88
2022-11-16T17:37:07.260Z,97367.88
2022-11-16T17:39:34.492Z,97362.53
2022-11-16T17:42:01.566Z,97369.50
2022-11-16T17:44:28.521Z,97370.44
2022-11-16T17:46:55.799Z,97360.78
2022-11-16T17:49:22.790Z,97348.47
2022-11-16T17:51:49.936Z,97355.53
2022-11-16T17:54:16.876Z,97350.53
2022-11-16T17:56:44.147Z,97356.13
2022-11-16T17:59:11.151Z,97355.94
2022-11-16T18:01:38.311Z,97355.88
2022-11-16T18:04:05.282Z,97349.78
2022-11-16T18:06:33.252Z,97339.50
2022-11-16T18:09:00.303Z,97348.31
2022-11-16T18:11:28.674Z,97347.31
2022-11-16T18:13:58.939Z,97348.91
2022-11-16T18:16:30.113Z,97348.66
2022-11-16T18:19:00.188Z,97350.44
2022-11-16T18:21:28.312Z,97347.72
2022-11-16T18:23:55.716Z,97346.69
2022-11-16T18:26:24.265Z,97351.19
2022-11-16T18:28:53.265Z,97354.00
2022-11-16T18:31:23.823Z,97363.66
2022-11-16T18:33:51.991Z,97355.69
2022-11-16T18:36:21.264Z,97346.00
2022-11-16T18:38:48.872Z,97340.75
2022-11-16T18:41:20.669Z,97336.75
2022-11-16T18:43:53.147Z,97336.66
2022-11-16T18:46:23.927Z,97339.13
2022-11-16T18:48:51.150Z,97330.03
2022-11-16T18:51:20.166Z,97338.47
2022-11-16T18:53:47.448Z,97336.72
2022-11-16T18:56:16.096Z,97335.09
2022-11-16T18:58:50.422Z,97333.78
2022-11-16T19:01:22.013Z,97331.50
2022-11-16T19:03:50.027Z,97335.34
2022-11-16T19:06:18.287Z,97323.28
2022-11-16T19:08:52.176Z,97326.88
2022-11-16T19:11:24.127Z,97317.44
2022-11-16T19:14:00.001Z,97318.41
2022-11-16T19:16:27.567Z,97312.97
2022-11-16T19:18:54.543Z,97316.53
2022-11-16T19:21:22.512Z,97313.91
2022-11-16T19:23:55.045Z,97323.66
2022-11-16T19:26:26.416Z,97325.53
2022-11-16T19:28:54.413Z,97330.88
2022-11-16T19:31:26.801Z,97324.84
2022-11-16T19:34:04.635Z,97320.63
2022-11-16T19:36:34.222Z,97320.88
2022-11-16T19:39:01.733Z,97328.16
2022-11-16T19:41:29.018Z,97322.16
2022-11-16T19:44:00.286Z,97322.16
2022-11-16T19:46:33.819Z,97325.53
2022-11-16T19:49:01.531Z,97323.00
2022-11-16T19:51:32.450Z,97320.53
2022-11-16T19:54:03.188Z,97326.75
2022-11-16T19:56:30.770Z,97333.66
2022-11-16T19:58:57.863Z,97335.38
2022-11-16T20:01:29.369Z,97335.38
2022-11-16T20:04:00.599Z,97328.41
2022-11-16T20:06:39.218Z,97325.78
2022-11-16T20:09:11.315Z,97325.72
2022-11-16T20:11:41.205Z,97324.69
2022-11-16T20:14:11.759Z,97318.63
2022-11-16T20:16:41.738Z,97320.38
2022-11-16T20:19:10.282Z,97327.41
2022-11-16T20:21:42.341Z,97327.41
2022-11-16T20:24:16.214Z,97322.56
2022-11-16T20:26:48.281Z,97323.38
2022-11-16T20:29:21.956Z,97322.31
2022-11-16T20:31:49.316Z,97326.56
2022-11-16T20:34:20.312Z,97323.75
2022-11-16T20:36:50.926Z,97314.09
2022-11-16T20:39:20.615Z,97315.03
2022-11-16T20:41:48.871Z,97309.09
2022-11-16T20:44:21.062Z,97311.72
2022-11-16T20:46:50.665Z,97301.97
2022-11-16T20:49:18.291Z,97305.28
2022-11-16T20:51:47.664Z,97306.97
2022-11-16T20:54:14.991Z,97305.34
2022-11-16T20:56:42.275Z,97312.22
2022-11-16T20:59:09.090Z,97305.28
2022-11-16T21:01:36.745Z,97309.59
2022-11-16T21:04:06.046Z,97305.28
2022-11-16T21:06:33.853Z,97300.97
2022-11-16T21:09:01.297Z,97298.44
2022-11-16T21:11:51.938Z,97289.59
2022-11-16T21:14:20.222Z,97278.25
2022-11-16T21:16:47.462Z,97283.25
2022-11-16T21:19:14.809Z,97290.97
2022-11-16T21:21:41.989Z,97288.34
2022-11-16T21:24:09.852Z,97293.59
2022-11-16T21:26:37.955Z,97293.59
2022-11-16T21:29:05.420Z,97297.97
2022-11-16T21:31:36.231Z,97291.72
2022-11-16T21:34:03.880Z,97295.19
2022-11-16T21:36:32.364Z,97296.88
2022-11-16T21:39:00.011Z,97299.59
2022-11-16T21:41:27.904Z,97293.75
2022-11-16T21:43:55.544Z,97308.59
2022-11-16T21:46:26.269Z,97305.84
2022-11-16T21:48:56.668Z,97299.00
2022-11-16T21:51:27.190Z,97298.94
2022-11-16T21:53:54.570Z,97304.94
2022-11-16T21:56:25.157Z,97305.78
2022-11-16T21:58:53.732Z,97299.59
2022-11-16T22:01:23.754Z,97305.78
2022-11-16T22:04:11.028Z,97309.19
2022-11-16T22:06:56.695Z,97312.66
2022-11-16T22:09:23.588Z,97308.97
2022-11-16T22:11:50.652Z,97312.56
2022-11-16T22:14:17.624Z,97308.16
2022-11-16T22:16:44.503Z,97304.69
2022-11-16T22:19:11.663Z,97313.31
2022-11-16T22:21:38.494Z,97312.38
2022-11-16T22:24:05.996Z,97306.34
2022-11-16T22:26:32.974Z,97302.81
2022-11-16T22:29:00.450Z,97299.25
2022-11-16T22:31:27.222Z,97294.84
2022-11-16T22:33:54.339Z,97300.75
2022-11-16T22:36:21.185Z,97304.44
2022-11-16T22:38:48.827Z,97300.09
2022-11-16T22:41:15.662Z,97300.25
2022-11-16T22:43:42.709Z,97305.34
2022-11-16T22:46:10.951Z,97301.97
2022-11-16T22:48:40.386Z,97303.63
2022-11-16T22:51:23.561Z,97301.88
2022-11-16T22:54:05.452Z,97304.50
2022-11-16T22:56:33.693Z,97292.47
2022-11-16T22:59:02.433Z,97296.78
2022-11-16T23:01:29.291Z,97287.28
2022-11-16T23:03:56.314Z,97296.13
2022-11-16T23:06:23.402Z,97295.34
2022-11-16T23:08:50.900Z,97296.31
2022-11-16T23:11:42.906Z,97298.09
2022-11-16T23:14:32.879Z,97293.00
2022-11-16T23:17:01.147Z,97287.09
2022-11-16T23:19:47.321Z,97286.03
2022-11-16T23:22:40.041Z,97292.72
2022-11-16T23:25:29.878Z,97279.56
2022-11-16T23:28:17.140Z,97278.75
2022-11-16T23:30:44.229Z,97283.91
2022-11-16T23:33:11.505Z,97273.50
2022-11-16T23:35:38.747Z,97279.50
2022-11-16T23:38:07.918Z,97279.56
2022-11-16T23:40:38.858Z,97278.81
2022-11-16T23:43:28.209Z,97278.66
2022-11-16T23:45:55.381Z,97278.56
2022-11-16T23:48:22.212Z,97277.75
2022-11-16T23:50:49.329Z,97259.59
2022-11-16T23:53:16.207Z,97262.22
2022-11-16T23:55:43.272Z,97256.72
2022-11-16T23:58:14.409Z,97255.75
